Terminal Aerodrome Forecast
Issued by NWS Pocatello, ID

Home | Current Version | Previous Version | Text Only | Print | Product List | Glossary On
Versions: 1 2 3 4 5 6 7 8 9 10 11 12 13
519
FTUS45 KPIH 202202 AAA
TAFBYI
TAF AMD
KBYI 202202Z 2022/2118 27009KT P6SM FEW120
     FM210200 23006KT P6SM SKC=

USA.gov is the U.S. government's official web portal to all federal, state and local government web resources and services.